Weather reports worldwide

Advertisment
Nord-Solvaer, Norway (1121): temperature & dewpoint: 01.08.2020 03:00:00 - 07.08.2020 03:00:00 (CEST)Nord-Solvaer, Norway (1121): wind speed & gusts: 01.08.2020 03:00:00 - 07.08.2020 03:00:00 (CEST)Nord-Solvaer, Norway (1121): wind direction: 01.08.2020 03:00:00 - 07.08.2020 03:00:00 (CEST)Nord-Solvaer, Norway (1121): reduced air pressure: 01.08.2020 03:00:00 - 07.08.2020 03:00:00 (CEST)
Date & Time tt [°C] td [°C] ff [km/h] ff [kn] fx [km/h] fx [kn] dd ppp [hPa]
07.08.2020 03:00:00 13,6 13,6 6 3 9 5 S 1021,4
07.08.2020 02:00:00 13,7 13,7 7 4 13 7 SW 1021,1
07.08.2020 01:00:00 13,8 13,8 9 5 18 10 SW 1020,8
07.08.2020 00:00:00 14,0 13,9 12 6 19 10 SSW 1020,6
06.08.2020 23:00:00 14,1 14,1 12 6 19 11 SSW 1020,2
06.08.2020 22:00:00 14,0 14,0 13 7 19 11 SSW 1019,6
06.08.2020 21:00:00 14,0 14,0 12 6 21 11 SW 1019,2
06.08.2020 20:00:00 14,2 14,2 15 8 24 13 SSW 1018,7
06.08.2020 19:00:00 14,6 14,6 16 9 29 16 SSW 1018,2
06.08.2020 18:00:00 14,4 14,4 19 10 30 16 SW 1017,8
06.08.2020 17:00:00 14,5 14,5 22 12 31 17 SW 1017,3
06.08.2020 16:00:00 14,8 14,8 17 9 25 13 S 1016,7
06.08.2020 15:00:00 15,4 14,4 14 8 29 16 S 1016,2
06.08.2020 14:00:00 15,0 14,2 18 10 32 18 SSW 1015,6
06.08.2020 13:00:00 14,7 14,1 20 11 34 18 SSW 1014,8
06.08.2020 12:00:00 14,5 14,2 21 11 33 18 SSW 1014,1
06.08.2020 11:00:00 14,2 13,9 18 10 29 15 S 1013,1
06.08.2020 10:00:00 13,6 13,5 18 10 27 14 S 1012,3
06.08.2020 09:00:00 13,3 13,0 16 9 28 15 S 1011,4
06.08.2020 08:00:00 13,9 12,6 17 9 25 14 S 1010,8
06.08.2020 07:00:00 15,4 10,8 10 6 18 10 S 1010,0
06.08.2020 06:00:00 16,1 10,9 10 5 21 11 S 1009,4
06.08.2020 05:00:00 14,1 10,3 13 7 19 10 S 1009,1
06.08.2020 04:00:00 13,6 10,2 11 6 16 9 S 1008,4
06.08.2020 03:00:00 13,9 10,1 8 4 13 7 S 1007,9
06.08.2020 02:00:00 13,9 9,9 11 6 17 9 SSW 1007,4
06.08.2020 01:00:00 14,8 10,2 12 7 19 10 S 1006,9
06.08.2020 00:00:00 15,5 10,3 13 7 19 10 S 1006,2
05.08.2020 23:00:00 16,5 10,1 15 8 27 15 SE 1005,3
05.08.2020 22:00:00 16,0 10,5 13 7 23 12 E 1004,6
05.08.2020 21:00:00 15,7 13,0 15 8 26 14 NE 1004,4
05.08.2020 20:00:00 16,2 12,7 21 12 29 15 NE 1004,1
05.08.2020 19:00:00 16,4 12,7 24 13 30 16 NE 1003,9
05.08.2020 18:00:00 16,2 12,7 23 12 31 17 NNE 1004,0
05.08.2020 17:00:00 16,0 12,4 24 13 29 16 NNE 1004,2
05.08.2020 16:00:00 16,2 12,0 22 12 27 14 NNE 1004,4
05.08.2020 15:00:00 15,6 11,0 21 11 24 13 NNE 1004,7
05.08.2020 14:00:00 15,4 11,2 19 11 22 12 NNE 1005,0
05.08.2020 13:00:00 16,5 11,0 10 6 16 9 E 1005,2
05.08.2020 12:00:00 15,4 11,2 11 6 16 8 ESE 1005,3
05.08.2020 11:00:00 15,1 11,1 8 5 16 9 SSE 1005,6
05.08.2020 10:00:00 13,4 11,8 13 7 20 11 SSE 1005,8
05.08.2020 09:00:00 12,5 12,0 16 9 22 12 SSE 1005,8
05.08.2020 08:00:00 12,1 12,0 15 8 25 13 S 1005,9
05.08.2020 07:00:00 11,8 11,7 15 8 23 12 S 1005,7
05.08.2020 06:00:00 11,5 11,4 14 7 22 12 S 1005,6
05.08.2020 05:00:00 11,8 11,7 14 8 28 15 S 1005,6
05.08.2020 04:00:00 11,7 11,7 18 10 29 16 S 1005,6
05.08.2020 03:00:00 11,7 11,5 19 10 33 18 S 1005,4
05.08.2020 02:00:00 11,8 11,7 17 9 28 15 S 1005,5
05.08.2020 01:00:00 11,7 11,5 16 8 27 15 S 1005,5
05.08.2020 00:00:00 11,9 11,7 17 9 36 19 SSW 1005,3
04.08.2020 23:00:00 11,8 11,2 20 11 34 18 S 1005,1
04.08.2020 22:00:00 12,0 11,7 19 10 34 19 S 1004,9
04.08.2020 21:00:00 12,4 11,8 19 11 29 16 S 1004,8
04.08.2020 20:00:00 12,4 11,3 18 10 34 19 SSW 1004,7
04.08.2020 19:00:00 12,3 11,8 21 12 44 24 SSW 1004,7
04.08.2020 18:00:00 12,5 11,7 25 13 40 21 SSW 1004,5
04.08.2020 17:00:00 12,5 11,7 26 14 43 23 SSW 1004,4
04.08.2020 16:00:00 13,0 11,2 25 14 45 25 SSW 1004,4
04.08.2020 15:00:00 13,0 11,2 29 16 48 26 SSW 1004,2
04.08.2020 14:00:00 13,0 12,1 23 13 41 22 SSW 1003,9
04.08.2020 13:00:00 13,3 11,4 22 12 39 21 SSW 1003,8
04.08.2020 12:00:00 13,1 10,6 23 13 39 21 SSW 1003,5
04.08.2020 11:00:00 13,4 11,1 22 12 37 20 SSW 1003,4
04.08.2020 10:00:00 13,3 11,2 23 12 36 20 SSW 1003,1
04.08.2020 09:00:00 12,3 11,2 18 10 30 16 SSW 1003,0
04.08.2020 08:00:00 11,3 11,0 14 7 34 18 SSW 1002,8
04.08.2020 07:00:00 11,9 10,6 19 10 33 18 SSW 1002,7
04.08.2020 06:00:00 10,8 10,0 21 11 37 20 SW 1002,7
04.08.2020 05:00:00 11,6 11,5 16 9 35 19 SSW 1002,7
04.08.2020 04:00:00 11,7 11,4 24 13 35 19 SSW 1002,8
04.08.2020 03:00:00 12,2 10,4 19 10 38 20 SW 1002,8
04.08.2020 02:00:00 12,2 11,4 26 14 40 22 SW 1002,6
04.08.2020 01:00:00 12,5 12,4 25 13 42 23 SW 1002,2
04.08.2020 00:00:00 12,4 12,4 26 14 42 23 SW 1001,7
03.08.2020 23:00:00 12,8 12,7 27 14 39 21 SSW 1001,3
03.08.2020 22:00:00 12,9 12,7 21 12 40 22 SSW 1001,0
03.08.2020 21:00:00 13,0 12,9 25 13 41 22 SSW 1000,7
03.08.2020 20:00:00 13,4 13,2 24 13 40 21 SSW 1000,3
03.08.2020 19:00:00 13,9 13,7 21 12 32 18 SSW 1000,1
03.08.2020 18:00:00 14,5 14,3 13 7 20 11 SSW 1000,0
03.08.2020 17:00:00 14,4 14,1 14 7 22 12 S 999,9
03.08.2020 16:00:00 14,7 14,4 14 7 31 17 SSW 999,9
03.08.2020 15:00:00 15,1 13,1 24 13 39 21 ESE 999,4
03.08.2020 14:00:00 15,0 13,5 20 11 39 21 ESE 999,4
03.08.2020 13:00:00 16,1 13,2 22 12 30 16 ESE 999,4
03.08.2020 12:00:00 15,4 13,1 21 11 30 16 ESE 999,3
03.08.2020 11:00:00 14,8 14,0 22 12 29 16 ESE 999,4
03.08.2020 10:00:00 15,4 14,1 9 5 29 16 ESE 999,5
03.08.2020 09:00:00 15,1 14,9 11 6 17 9 ESE 999,4
03.08.2020 08:00:00 14,9 14,9 2 1 8 5 SSW 999,4
03.08.2020 07:00:00 14,8 14,8 4 2 10 5 SW 999,6
03.08.2020 06:00:00 14,4 14,4 8 5 15 8 NE 999,6
03.08.2020 05:00:00 14,5 14,5 10 6 16 9 SW 1000,1
03.08.2020 04:00:00 14,5 14,5 16 9 25 13 SW 1000,5
03.08.2020 03:00:00 15,5 15,3 16 9 22 12 SW 1000,7
03.08.2020 02:00:00 16,4 15,4 4 2 18 10 S 1000,7
03.08.2020 01:00:00 17,5 14,8 12 7 39 21 SSW 1000,5
03.08.2020 00:00:00 19,6 13,1 27 15 39 21 SE 999,8
02.08.2020 23:00:00 20,3 13,0 26 14 37 20 ESE 999,8
02.08.2020 22:00:00 20,4 13,1 22 12 37 20 ESE 1000,1
02.08.2020 21:00:00 21,2 13,4 24 13 38 21 ESE 1000,3
02.08.2020 20:00:00 22,3 13,4 24 13 40 22 ESE 1000,5
02.08.2020 19:00:00 21,3 13,7 23 12 32 17 ESE 1000,8
02.08.2020 18:00:00 22,3 13,9 20 11 29 16 ESE 1001,2
02.08.2020 17:00:00 23,9 14,0 26 14 34 18 ESE 1001,4
02.08.2020 16:00:00 24,0 13,8 23 12 33 18 ESE 1002,0
02.08.2020 15:00:00 23,5 13,7 23 13 35 19 ESE 1002,6
02.08.2020 14:00:00 23,7 13,9 21 11 29 16 ESE 1002,9
02.08.2020 13:00:00 20,4 14,1 8 5 13 7 ENE 1003,3
02.08.2020 12:00:00 17,1 14,4 9 5 14 8 N 1003,7
02.08.2020 11:00:00 18,4 14,1 9 5 14 8 NE 1004,0
02.08.2020 10:00:00 17,3 13,6 6 4 8 5 NNE 1004,4
02.08.2020 09:00:00 16,3 14,5 5 3 12 6 NNE 1004,8
02.08.2020 08:00:00 14,5 14,2 9 5 11 6 NNE 1005,2
02.08.2020 07:00:00 14,6 14,3 8 5 12 7 N 1005,7
02.08.2020 06:00:00 14,4 14,2 9 5 11 6 N 1006,0
02.08.2020 05:00:00 14,4 14,2 9 5 16 9 NE 1006,6
02.08.2020 04:00:00 14,1 14,1 9 5 13 7 NNE 1007,3
02.08.2020 03:00:00 14,2 14,0 11 6 16 9 NNE 1007,8
02.08.2020 02:00:00 14,3 14,1 14 7 17 9 N 1008,2
02.08.2020 01:00:00 14,3 14,0 8 4 17 9 N 1008,8
02.08.2020 00:00:00 14,5 14,2 14 7 21 11 NNE 1009,2
01.08.2020 23:00:00 14,6 14,3 17 9 21 11 N 1009,6
01.08.2020 22:00:00 14,8 14,3 17 9 21 11 NNE 1010,1
01.08.2020 21:00:00 14,9 14,4 16 9 22 12 N 1010,4
01.08.2020 20:00:00 15,4 14,4 7 4 21 11 NNW 1011,1
01.08.2020 19:00:00 15,1 14,3 17 9 22 12 NNE 1011,5
01.08.2020 18:00:00 15,5 14,2 14 8 16 9 N 1012,0
01.08.2020 17:00:00 15,6 14,0 15 8 22 12 NNE 1012,5
01.08.2020 16:00:00 16,4 13,7 14 8 21 11 N 1012,9
01.08.2020 15:00:00 15,8 14,2 18 10 24 13 N 1013,2
01.08.2020 14:00:00 15,1 13,8 19 10 22 12 N 1013,6
01.08.2020 13:00:00 15,6 14,1 15 8 19 10 N 1014,0
01.08.2020 12:00:00 15,2 13,9 16 8 19 10 NNE 1014,3
01.08.2020 11:00:00 15,9 13,7 17 9 22 12 NNE 1014,7
01.08.2020 10:00:00 15,2 13,7 17 9 21 12 NNE 1014,7
01.08.2020 09:00:00 14,5 13,5 16 9 22 12 NNE 1015,1
01.08.2020 08:00:00 14,3 13,2 16 9 21 12 NE 1015,4
01.08.2020 07:00:00 14,8 13,5 16 9 20 11 NE 1015,8
01.08.2020 06:00:00 13,6 13,5 15 8 22 12 NE 1016,4
01.08.2020 05:00:00 13,6 13,5 16 9 20 11 NE 1016,8
01.08.2020 04:00:00 13,7 13,5 16 9 18 10 NNE 1017,3
01.08.2020 03:00:00 13,7 13,5 13 7 14 8 NNE 1017,9

tt = temperature
td = dewpoint
ff = wind speed
fx = gusts
dd = wind direction
ppp = reduced air pressure

Next stations